createdAt,value
2019-05-22T00:00:41.588Z,10.78
2019-05-22T00:03:15.673Z,10.78
2019-05-22T00:05:47.995Z,10.89
2019-05-22T00:08:19.864Z,11.03
2019-05-22T00:10:51.755Z,10.81
2019-05-22T00:13:31.050Z,11.00
2019-05-22T00:16:03.934Z,10.87
2019-05-22T00:18:34.930Z,10.78
2019-05-22T00:21:05.296Z,10.90
2019-05-22T00:23:37.033Z,10.75
2019-05-22T00:26:07.643Z,10.77
2019-05-22T00:28:38.899Z,10.70
2019-05-22T00:31:09.193Z,10.69
2019-05-22T00:33:39.871Z,10.78
2019-05-22T00:36:13.351Z,10.81
2019-05-22T00:38:44.428Z,10.74
2019-05-22T00:41:18.436Z,10.68
2019-05-22T00:43:49.432Z,10.85
2019-05-22T00:46:21.294Z,10.77
2019-05-22T00:48:52.246Z,10.69
2019-05-22T00:51:47.145Z,10.78
2019-05-22T00:54:36.917Z,10.76
2019-05-22T00:57:21.987Z,10.90
2019-05-22T00:59:54.915Z,10.82
2019-05-22T01:02:28.024Z,10.89
2019-05-22T01:04:59.786Z,10.96
2019-05-22T01:07:37.172Z,10.93
2019-05-22T01:10:11.614Z,10.76
2019-05-22T01:12:44.097Z,10.73
2019-05-22T01:15:20.775Z,10.67
2019-05-22T01:17:51.028Z,10.84
2019-05-22T01:20:24.493Z,10.71
2019-05-22T01:22:57.632Z,10.70
2019-05-22T01:25:29.015Z,10.72
2019-05-22T01:28:00.294Z,10.67
2019-05-22T01:30:40.035Z,10.62
2019-05-22T01:33:14.157Z,10.68
2019-05-22T01:35:50.609Z,10.63
2019-05-22T01:38:23.085Z,10.66
2019-05-22T01:40:58.835Z,10.61
2019-05-22T01:43:29.872Z,10.56
2019-05-22T01:46:03.280Z,10.77
2019-05-22T01:48:37.349Z,10.73
2019-05-22T01:51:07.291Z,10.65
2019-05-22T01:53:40.928Z,10.70
2019-05-22T01:56:12.776Z,10.57
2019-05-22T01:58:45.843Z,10.65
2019-05-22T02:01:20.795Z,10.66
2019-05-22T02:03:54.379Z,10.76
2019-05-22T02:06:25.057Z,10.62
2019-05-22T02:09:02.636Z,10.59
2019-05-22T02:11:33.449Z,10.73
2019-05-22T02:14:09.933Z,10.62
2019-05-22T02:16:56.302Z,10.57
2019-05-22T02:19:18.278Z,10.64
2019-05-22T02:21:49.325Z,10.66
2019-05-22T02:24:20.215Z,10.62
2019-05-22T02:26:51.328Z,10.51
2019-05-22T02:29:22.161Z,10.65
2019-05-22T02:31:55.567Z,10.54
2019-05-22T02:34:26.245Z,10.68
2019-05-22T02:36:57.734Z,10.61
2019-05-22T02:39:30.543Z,10.52
2019-05-22T02:42:06.501Z,10.54
2019-05-22T02:44:38.196Z,10.70
2019-05-22T02:47:18.880Z,10.69
2019-05-22T02:49:42.255Z,10.48
2019-05-22T02:52:12.834Z,10.64
2019-05-22T02:54:42.916Z,10.79
2019-05-22T02:57:13.313Z,10.57
2019-05-22T02:59:43.819Z,10.72
2019-05-22T03:02:15.922Z,10.78
2019-05-22T03:05:05.642Z,10.64
2019-05-22T03:07:36.110Z,10.75
2019-05-22T03:10:08.075Z,10.83
2019-05-22T03:12:39.007Z,10.73
2019-05-22T03:15:12.963Z,10.70
2019-05-22T03:17:47.455Z,10.64
2019-05-22T03:20:24.223Z,10.63
2019-05-22T03:23:30.808Z,10.73
2019-05-22T03:26:01.935Z,10.80
2019-05-22T03:28:32.236Z,10.69
2019-05-22T03:31:03.493Z,10.75
2019-05-22T03:33:34.563Z,10.57
2019-05-22T03:36:11.218Z,10.67
2019-05-22T03:38:41.790Z,10.63
2019-05-22T03:41:13.652Z,10.61
2019-05-22T03:43:46.238Z,10.66
2019-05-22T03:46:34.262Z,10.57
2019-05-22T03:49:05.704Z,10.69
2019-05-22T03:51:36.251Z,10.62
2019-05-22T03:54:06.577Z,10.66
2019-05-22T03:56:43.192Z,10.59
2019-05-22T03:59:13.689Z,10.67
2019-05-22T04:01:45.058Z,10.56
2019-05-22T04:04:33.960Z,10.53
2019-05-22T04:07:08.497Z,10.50
2019-05-22T04:09:40.130Z,10.70
2019-05-22T04:12:11.566Z,10.66
2019-05-22T04:14:42.470Z,10.61
2019-05-22T04:17:15.071Z,10.84
2019-05-22T04:19:51.035Z,10.67
2019-05-22T04:22:19.055Z,10.74
2019-05-22T04:24:50.045Z,10.72
2019-05-22T04:27:20.367Z,10.85
2019-05-22T04:29:51.219Z,10.69
2019-05-22T04:32:31.607Z,10.79
2019-05-22T04:35:02.419Z,10.75
2019-05-22T04:37:33.134Z,10.80
2019-05-22T04:40:44.280Z,10.82
2019-05-22T04:43:20.097Z,10.71
2019-05-22T04:45:48.401Z,10.62
2019-05-22T04:48:19.588Z,10.58
2019-05-22T04:50:51.979Z,10.77
2019-05-22T04:53:22.046Z,10.75
2019-05-22T04:55:53.060Z,10.79
2019-05-22T04:58:26.494Z,10.72
2019-05-22T05:00:56.891Z,10.75
2019-05-22T05:03:29.309Z,10.82
2019-05-22T05:06:00.177Z,10.77
2019-05-22T05:08:30.647Z,10.80
2019-05-22T05:11:03.005Z,10.67
2019-05-22T05:13:33.339Z,10.86
2019-05-22T05:16:04.163Z,10.81
2019-05-22T05:18:35.189Z,10.85
2019-05-22T05:21:06.520Z,10.88
2019-05-22T05:23:36.589Z,10.86
2019-05-22T05:26:07.806Z,10.98
2019-05-22T05:28:38.627Z,10.98
2019-05-22T05:31:08.787Z,11.09
2019-05-22T05:34:01.694Z,11.00
2019-05-22T05:36:32.384Z,10.81
2019-05-22T05:39:07.097Z,11.05
2019-05-22T05:41:37.227Z,11.07
2019-05-22T05:44:07.793Z,11.05
2019-05-22T05:46:37.887Z,11.03
2019-05-22T05:49:07.800Z,11.12
2019-05-22T05:51:43.087Z,11.12
2019-05-22T05:54:15.271Z,11.22
2019-05-22T05:56:48.376Z,11.16
2019-05-22T05:59:22.583Z,11.12
2019-05-22T06:02:01.125Z,10.92
2019-05-22T06:04:36.355Z,10.94
2019-05-22T06:07:27.865Z,10.82
2019-05-22T06:10:34.366Z,10.98
2019-05-22T06:13:05.237Z,11.13
2019-05-22T06:15:47.216Z,11.07
2019-05-22T06:18:35.448Z,10.98
2019-05-22T06:21:09.913Z,11.00
2019-05-22T06:24:23.394Z,11.04
2019-05-22T06:27:12.613Z,11.09
2019-05-22T06:29:55.661Z,11.26
2019-05-22T06:32:54.777Z,11.24
2019-05-22T06:35:26.705Z,11.13
2019-05-22T06:38:24.162Z,11.08
2019-05-22T06:40:54.497Z,11.05
2019-05-22T06:44:10.186Z,11.11
2019-05-22T06:46:47.564Z,10.99
2019-05-22T06:49:37.183Z,11.03
2019-05-22T06:52:08.188Z,11.03
2019-05-22T06:54:38.850Z,11.03
2019-05-22T06:57:26.463Z,11.17
2019-05-22T07:00:12.293Z,11.33
2019-05-22T07:02:31.722Z,11.34
2019-05-22T07:05:02.008Z,11.36
2019-05-22T07:07:32.135Z,11.39
2019-05-22T07:10:02.467Z,11.51
2019-05-22T07:12:35.327Z,11.64
2019-05-22T07:15:31.283Z,11.64
2019-05-22T07:18:03.270Z,11.38
2019-05-22T07:20:35.741Z,11.38
2019-05-22T07:23:07.957Z,11.69
2019-05-22T07:25:40.205Z,11.68
2019-05-22T07:28:11.482Z,11.61
2019-05-22T07:30:41.437Z,11.84
2019-05-22T07:33:12.325Z,11.66
2019-05-22T07:36:04.485Z,11.71
2019-05-22T07:38:16.879Z,11.76
2019-05-22T07:40:50.643Z,11.80
2019-05-22T07:43:20.910Z,11.67
2019-05-22T07:45:52.740Z,11.63
2019-05-22T07:48:25.785Z,11.60
2019-05-22T07:50:57.403Z,11.43
2019-05-22T07:53:28.643Z,11.63
2019-05-22T07:56:02.621Z,11.64
2019-05-22T07:58:33.120Z,11.61
2019-05-22T08:01:03.471Z,11.81
2019-05-22T08:03:34.208Z,11.81
2019-05-22T08:06:06.298Z,11.99
2019-05-22T08:08:37.042Z,12.14
2019-05-22T08:11:07.505Z,12.08
2019-05-22T08:13:38.567Z,11.99
2019-05-22T08:16:09.722Z,11.97
2019-05-22T08:18:40.616Z,12.01
2019-05-22T08:21:11.710Z,12.35
2019-05-22T08:23:42.189Z,12.80
2019-05-22T08:26:17.311Z,12.69
2019-05-22T08:28:47.304Z,12.69
2019-05-22T08:31:20.055Z,12.47
2019-05-22T08:33:50.164Z,12.37
2019-05-22T08:36:20.162Z,12.74
2019-05-22T08:38:50.852Z,12.91
2019-05-22T08:41:27.274Z,13.28
2019-05-22T08:44:15.436Z,13.62
2019-05-22T08:46:29.962Z,13.77
2019-05-22T08:49:00.122Z,13.52
2019-05-22T08:51:30.468Z,14.02
2019-05-22T08:54:00.780Z,13.93
2019-05-22T08:56:35.918Z,13.92
2019-05-22T08:59:18.818Z,14.09
2019-05-22T09:01:40.149Z,13.74
2019-05-22T09:04:10.519Z,13.38
2019-05-22T09:06:40.668Z,12.87
2019-05-22T09:09:11.689Z,12.86
2019-05-22T09:11:41.654Z,12.55
2019-05-22T09:14:11.810Z,12.49
2019-05-22T09:16:41.741Z,12.72
2019-05-22T09:19:12.160Z,13.39
2019-05-22T09:21:42.874Z,13.68
2019-05-22T09:24:17.007Z,13.45
2019-05-22T09:26:47.259Z,13.24
2019-05-22T09:29:17.532Z,13.21
2019-05-22T09:31:47.557Z,13.27
2019-05-22T09:34:17.696Z,13.61
2019-05-22T09:36:48.685Z,13.27
2019-05-22T09:39:18.757Z,13.45
2019-05-22T09:41:48.661Z,13.51
2019-05-22T09:44:18.767Z,13.31
2019-05-22T09:46:49.322Z,13.06
2019-05-22T09:49:23.610Z,12.97
2019-05-22T09:51:51.458Z,12.81
2019-05-22T09:54:22.066Z,12.50
2019-05-22T09:56:52.050Z,12.64
2019-05-22T09:59:22.132Z,12.86
2019-05-22T10:01:52.150Z,13.12
2019-05-22T10:04:22.336Z,13.23
2019-05-22T10:06:52.428Z,13.31
2019-05-22T10:09:22.731Z,13.55
2019-05-22T10:11:53.254Z,13.96
2019-05-22T10:14:23.807Z,14.09
2019-05-22T10:16:54.280Z,14.19
2019-05-22T10:19:24.877Z,15.14
2019-05-22T10:21:55.413Z,16.02
2019-05-22T10:24:25.478Z,15.73
2019-05-22T10:26:55.873Z,15.33
2019-05-22T10:29:26.678Z,14.62
2019-05-22T10:31:56.565Z,14.33
2019-05-22T10:34:26.979Z,13.75
2019-05-22T10:36:56.973Z,13.62
2019-05-22T10:39:28.063Z,13.42
2019-05-22T10:41:57.934Z,13.54
2019-05-22T10:44:28.332Z,13.70
2019-05-22T10:46:58.319Z,13.63
2019-05-22T10:49:28.305Z,13.59
2019-05-22T10:51:58.277Z,13.59
2019-05-22T10:54:28.470Z,14.32
2019-05-22T10:56:58.572Z,14.71
2019-05-22T10:59:28.475Z,14.83
2019-05-22T11:01:58.562Z,15.21
2019-05-22T11:04:29.578Z,14.62
2019-05-22T11:06:59.678Z,14.83
2019-05-22T11:09:30.849Z,14.94
2019-05-22T11:12:01.138Z,14.53
2019-05-22T11:14:31.442Z,14.32
2019-05-22T11:17:01.695Z,13.74
2019-05-22T11:19:32.318Z,13.60
2019-05-22T11:22:04.058Z,13.34
2019-05-22T11:24:36.304Z,13.44
2019-05-22T11:27:06.530Z,13.21
2019-05-22T11:29:36.582Z,13.44
2019-05-22T11:32:07.072Z,13.78
2019-05-22T11:34:37.387Z,14.10
2019-05-22T11:37:07.963Z,14.75
2019-05-22T11:39:40.338Z,15.04
2019-05-22T11:42:11.163Z,15.61
2019-05-22T11:44:41.752Z,15.24
2019-05-22T11:47:13.932Z,15.81
2019-05-22T11:49:43.846Z,15.70
2019-05-22T11:52:14.237Z,15.19
2019-05-22T11:54:45.021Z,15.16
2019-05-22T11:57:16.673Z,15.36
2019-05-22T11:59:47.299Z,15.20
2019-05-22T12:02:17.345Z,14.80
2019-05-22T12:04:48.896Z,14.58
2019-05-22T12:07:19.570Z,14.31
2019-05-22T12:09:49.940Z,14.10
2019-05-22T12:12:20.309Z,13.65
2019-05-22T12:14:50.243Z,13.53
2019-05-22T12:17:36.742Z,13.53
2019-05-22T12:19:53.662Z,13.63
2019-05-22T12:22:23.709Z,13.75
2019-05-22T12:24:53.809Z,14.41
2019-05-22T12:27:25.506Z,14.64
2019-05-22T12:29:55.614Z,15.06
2019-05-22T12:32:27.641Z,15.34
2019-05-22T12:34:57.563Z,15.77
2019-05-22T12:37:28.541Z,15.51
2019-05-22T12:40:00.295Z,15.61
2019-05-22T12:42:30.994Z,16.11
2019-05-22T12:45:01.026Z,16.34
2019-05-22T12:47:31.206Z,16.18
2019-05-22T12:50:02.698Z,16.19
2019-05-22T12:52:33.243Z,16.11
2019-05-22T12:55:04.443Z,16.20
2019-05-22T12:57:35.110Z,16.13
2019-05-22T13:00:05.661Z,15.59
2019-05-22T13:02:36.932Z,15.45
2019-05-22T13:05:07.999Z,16.00
2019-05-22T13:07:38.399Z,16.07
2019-05-22T13:10:09.377Z,16.60
2019-05-22T13:12:39.669Z,16.57
2019-05-22T13:15:10.961Z,16.75
2019-05-22T13:17:41.451Z,16.47
2019-05-22T13:20:13.907Z,16.03
2019-05-22T13:22:47.575Z,16.18
2019-05-22T13:25:19.815Z,15.91
2019-05-22T13:27:52.067Z,15.93
2019-05-22T13:30:28.426Z,15.85
2019-05-22T13:32:58.069Z,16.07
2019-05-22T13:35:29.170Z,15.79
2019-05-22T13:38:00.140Z,15.67
2019-05-22T13:40:32.697Z,15.95
2019-05-22T13:43:03.858Z,15.51
2019-05-22T13:45:35.002Z,15.61
2019-05-22T13:48:05.179Z,16.23
2019-05-22T13:50:35.965Z,15.97
2019-05-22T13:53:06.459Z,15.66
2019-05-22T13:55:36.863Z,15.74
2019-05-22T13:58:07.909Z,15.81
2019-05-22T14:00:38.977Z,15.69
2019-05-22T14:03:09.893Z,15.29
2019-05-22T14:05:42.035Z,15.23
2019-05-22T14:08:12.184Z,14.93
2019-05-22T14:10:43.974Z,14.88
2019-05-22T14:13:14.361Z,14.91
2019-05-22T14:15:54.690Z,15.30
2019-05-22T14:18:16.315Z,15.43
2019-05-22T14:20:46.809Z,15.61
2019-05-22T14:23:18.074Z,15.62
2019-05-22T14:25:48.654Z,15.64
2019-05-22T14:28:19.272Z,15.81
2019-05-22T14:30:49.879Z,15.48
2019-05-22T14:33:20.141Z,15.25
2019-05-22T14:35:52.553Z,15.15
2019-05-22T14:38:22.659Z,15.36
2019-05-22T14:40:52.684Z,15.64
2019-05-22T14:43:22.590Z,15.83
2019-05-22T14:45:53.160Z,15.77
2019-05-22T14:48:23.181Z,15.97
2019-05-22T14:50:53.160Z,15.86
2019-05-22T14:53:23.266Z,15.67
2019-05-22T14:55:53.926Z,15.74
2019-05-22T14:58:24.390Z,15.79
2019-05-22T15:00:54.700Z,15.73
2019-05-22T15:03:25.217Z,15.52
2019-05-22T15:05:55.280Z,15.36
2019-05-22T15:08:25.421Z,15.77
2019-05-22T15:10:55.909Z,15.87
2019-05-22T15:13:26.870Z,16.31
2019-05-22T15:15:56.902Z,16.65
2019-05-22T15:18:27.042Z,16.28
2019-05-22T15:21:02.480Z,16.27
2019-05-22T15:23:33.463Z,15.94
2019-05-22T15:26:04.085Z,16.16
2019-05-22T15:28:34.541Z,15.60
2019-05-22T15:31:06.508Z,15.54
2019-05-22T15:33:36.944Z,15.59
2019-05-22T15:36:10.516Z,15.35
2019-05-22T15:38:42.188Z,15.09
2019-05-22T15:41:13.218Z,15.18
2019-05-22T15:43:51.740Z,15.17
2019-05-22T15:46:19.006Z,15.21
2019-05-22T15:48:50.699Z,15.34
2019-05-22T15:51:26.014Z,14.93
2019-05-22T15:53:59.837Z,14.97
2019-05-22T15:56:31.783Z,15.26
2019-05-22T15:59:05.039Z,15.34
2019-05-22T16:01:36.949Z,15.31
2019-05-22T16:04:10.019Z,15.17
2019-05-22T16:06:40.381Z,14.81
2019-05-22T16:09:15.201Z,14.80
2019-05-22T16:11:47.104Z,14.73
2019-05-22T16:14:17.372Z,14.74
2019-05-22T16:16:51.171Z,14.88
2019-05-22T16:19:24.616Z,14.80
2019-05-22T16:21:56.615Z,14.92
2019-05-22T16:24:27.360Z,14.67
2019-05-22T16:26:57.482Z,14.58
2019-05-22T16:29:28.501Z,14.43
2019-05-22T16:32:00.364Z,14.54
2019-05-22T16:34:30.495Z,14.62
2019-05-22T16:37:03.902Z,14.27
2019-05-22T16:39:34.133Z,14.34
2019-05-22T16:42:04.799Z,14.28
2019-05-22T16:44:34.880Z,14.19
2019-05-22T16:47:06.768Z,14.11
2019-05-22T16:49:38.125Z,14.36
2019-05-22T16:52:11.294Z,14.34
2019-05-22T16:54:42.844Z,14.13
2019-05-22T16:57:13.305Z,14.47
2019-05-22T16:59:45.078Z,14.39
2019-05-22T17:02:17.849Z,14.46
2019-05-22T17:04:48.666Z,14.58
2019-05-22T17:07:19.306Z,14.82
2019-05-22T17:09:51.794Z,15.12
2019-05-22T17:12:23.324Z,15.30
2019-05-22T17:14:54.408Z,15.54
2019-05-22T17:17:25.081Z,15.70
2019-05-22T17:19:55.303Z,15.68
2019-05-22T17:22:26.103Z,15.40
2019-05-22T17:24:56.923Z,15.22
2019-05-22T17:27:26.977Z,15.11
2019-05-22T17:29:57.935Z,15.24
2019-05-22T17:32:28.711Z,15.30
2019-05-22T17:34:59.538Z,15.13
2019-05-22T17:37:30.634Z,14.79
2019-05-22T17:40:02.105Z,14.66
2019-05-22T17:42:33.017Z,14.68
2019-05-22T17:45:03.439Z,14.54
2019-05-22T17:47:33.849Z,14.36
2019-05-22T17:50:04.414Z,14.34
2019-05-22T17:52:34.729Z,14.25
2019-05-22T17:55:06.186Z,14.11
2019-05-22T17:57:38.043Z,14.09
2019-05-22T18:00:16.879Z,14.10
2019-05-22T18:02:46.898Z,14.05
2019-05-22T18:05:18.810Z,14.06
2019-05-22T18:07:49.189Z,14.11
2019-05-22T18:10:19.462Z,14.10
2019-05-22T18:12:49.549Z,14.07
2019-05-22T18:15:20.409Z,13.99
2019-05-22T18:17:50.967Z,13.95
2019-05-22T18:20:21.837Z,14.02
2019-05-22T18:22:52.013Z,13.90
2019-05-22T18:25:22.380Z,13.96
2019-05-22T18:27:53.455Z,13.99
2019-05-22T18:30:24.316Z,14.02
2019-05-22T18:32:54.410Z,13.86
2019-05-22T18:35:24.382Z,13.99
2019-05-22T18:37:54.493Z,14.07
2019-05-22T18:40:24.473Z,13.96
2019-05-22T18:42:54.796Z,14.10
2019-05-22T18:45:25.311Z,14.09
2019-05-22T18:47:55.952Z,14.13
2019-05-22T18:50:26.577Z,14.18
2019-05-22T18:52:56.790Z,14.19
2019-05-22T18:55:26.878Z,14.13
2019-05-22T18:57:56.802Z,14.05
2019-05-22T19:00:29.094Z,13.88
2019-05-22T19:02:59.188Z,13.97
2019-05-22T19:05:31.673Z,13.89
2019-05-22T19:08:01.687Z,13.86
2019-05-22T19:10:32.783Z,13.73
2019-05-22T19:13:03.153Z,13.69
2019-05-22T19:15:33.715Z,13.67
2019-05-22T19:18:03.709Z,13.60
2019-05-22T19:20:34.208Z,13.47
2019-05-22T19:23:04.398Z,13.45
2019-05-22T19:25:34.510Z,13.51
2019-05-22T19:28:04.861Z,13.57
2019-05-22T19:30:36.334Z,13.56
2019-05-22T19:33:06.658Z,13.58
2019-05-22T19:35:36.725Z,13.58
2019-05-22T19:38:06.903Z,13.56
2019-05-22T19:40:37.568Z,13.41
2019-05-22T19:43:07.727Z,13.40
2019-05-22T19:45:38.009Z,13.25
2019-05-22T19:48:08.115Z,13.14
2019-05-22T19:50:38.903Z,13.10
2019-05-22T19:53:18.812Z,13.03
2019-05-22T19:55:42.004Z,12.93
2019-05-22T19:58:12.967Z,12.88
2019-05-22T20:00:42.996Z,12.77
2019-05-22T20:03:15.060Z,12.82
2019-05-22T20:05:45.512Z,12.73
2019-05-22T20:08:15.425Z,12.61
2019-05-22T20:10:45.613Z,12.50
2019-05-22T20:13:17.207Z,12.38
2019-05-22T20:15:47.777Z,12.26
2019-05-22T20:18:18.205Z,12.33
2019-05-22T20:20:48.290Z,12.22
2019-05-22T20:23:34.286Z,12.20
2019-05-22T20:25:52.557Z,12.15
2019-05-22T20:28:22.790Z,12.09
2019-05-22T20:30:52.897Z,12.03
2019-05-22T20:33:26.737Z,12.07
2019-05-22T20:35:55.097Z,12.09
2019-05-22T20:38:25.510Z,12.12
2019-05-22T20:40:56.586Z,12.12
2019-05-22T20:43:27.657Z,12.11
2019-05-22T20:45:58.140Z,11.99
2019-05-22T20:48:30.682Z,11.90
2019-05-22T20:51:01.107Z,11.90
2019-05-22T20:53:33.381Z,11.77
2019-05-22T20:56:03.521Z,11.68
2019-05-22T20:58:33.839Z,11.68
2019-05-22T21:01:05.832Z,11.71
2019-05-22T21:03:36.805Z,11.69
2019-05-22T21:06:10.354Z,11.63
2019-05-22T21:08:42.112Z,11.64
2019-05-22T21:11:15.091Z,11.61
2019-05-22T21:13:46.212Z,11.58
2019-05-22T21:16:17.584Z,11.51
2019-05-22T21:18:51.721Z,11.47
2019-05-22T21:21:23.708Z,11.52
2019-05-22T21:24:07.677Z,11.55
2019-05-22T21:26:25.726Z,11.49
2019-05-22T21:28:55.968Z,11.40
2019-05-22T21:31:26.122Z,11.36
2019-05-22T21:33:56.820Z,11.36
2019-05-22T21:36:28.122Z,11.37
2019-05-22T21:38:58.434Z,11.31
2019-05-22T21:41:28.667Z,11.27
2019-05-22T21:43:58.757Z,11.20
2019-05-22T21:46:28.692Z,11.17
2019-05-22T21:48:59.371Z,11.17
2019-05-22T21:51:29.566Z,11.17
2019-05-22T21:53:59.753Z,11.12
2019-05-22T21:56:30.650Z,11.05
2019-05-22T21:59:00.829Z,11.04
2019-05-22T22:01:50.203Z,11.10
2019-05-22T22:04:22.572Z,11.14
2019-05-22T22:06:55.202Z,11.19
2019-05-22T22:09:26.270Z,11.15
2019-05-22T22:11:57.100Z,11.13
2019-05-22T22:14:27.651Z,11.08
2019-05-22T22:16:57.845Z,11.02
2019-05-22T22:19:30.410Z,11.13
2019-05-22T22:22:00.861Z,11.22
2019-05-22T22:24:31.153Z,11.16
2019-05-22T22:27:01.663Z,11.16
2019-05-22T22:29:31.883Z,11.14
2019-05-22T22:32:02.449Z,11.10
2019-05-22T22:34:47.354Z,11.10
2019-05-22T22:37:19.055Z,11.05
2019-05-22T22:39:55.187Z,10.94
2019-05-22T22:42:29.225Z,10.87
2019-05-22T22:44:59.582Z,10.75
2019-05-22T22:47:37.318Z,10.84
2019-05-22T22:50:09.811Z,10.90
2019-05-22T22:52:40.671Z,11.07
2019-05-22T22:55:14.258Z,11.03
2019-05-22T22:57:46.721Z,11.10
2019-05-22T23:00:22.993Z,11.14
2019-05-22T23:02:53.629Z,11.21
2019-05-22T23:05:24.454Z,11.18
2019-05-22T23:07:55.652Z,11.30
2019-05-22T23:10:26.126Z,11.32
2019-05-22T23:12:56.909Z,11.35
2019-05-22T23:15:28.374Z,11.19
2019-05-22T23:17:58.473Z,11.02
2019-05-22T23:20:27.422Z,10.90
2019-05-22T23:22:55.822Z,10.84
2019-05-22T23:25:25.845Z,10.74
2019-05-22T23:27:55.765Z,10.67
2019-05-22T23:30:25.990Z,10.59
2019-05-22T23:32:57.391Z,10.48
2019-05-22T23:35:30.347Z,10.34
2019-05-22T23:38:02.086Z,10.26
2019-05-22T23:40:36.304Z,10.19
2019-05-22T23:43:07.030Z,10.08
2019-05-22T23:45:37.598Z,10.09
2019-05-22T23:48:16.316Z,10.20
2019-05-22T23:50:48.259Z,10.27
2019-05-22T23:53:18.509Z,10.29
2019-05-22T23:55:48.590Z,10.25
2019-05-22T23:58:20.021Z,10.21
